sensor_id;sensor_type;location;lat;lon;timestamp;P1;durP1;ratioP1;P2;durP2;ratioP2
24995;SDS011;13016;52.162;21.034;2023-03-01T00:00:09;92.50;;;44.50;;
24995;SDS011;13016;52.162;21.034;2023-03-01T00:02:45;91.20;;;43.70;;
24995;SDS011;13016;52.162;21.034;2023-03-01T00:05:22;84.50;;;42.30;;
24995;SDS011;13016;52.162;21.034;2023-03-01T00:08:02;78.80;;;41.00;;
24995;SDS011;13016;52.162;21.034;2023-03-01T00:11:25;82.50;;;41.50;;
24995;SDS011;13016;52.162;21.034;2023-03-01T00:25:08;80.20;;;42.30;;
24995;SDS011;13016;52.162;21.034;2023-03-01T00:27:50;78.60;;;39.60;;
24995;SDS011;13016;52.162;21.034;2023-03-01T00:30:27;73.80;;;38.60;;
24995;SDS011;13016;52.162;21.034;2023-03-01T00:33:00;76.20;;;38.10;;
24995;SDS011;13016;52.162;21.034;2023-03-01T00:35:39;83.00;;;39.30;;
24995;SDS011;13016;52.162;21.034;2023-03-01T00:38:18;74.90;;;36.20;;
24995;SDS011;13016;52.162;21.034;2023-03-01T00:43:24;75.70;;;38.10;;
24995;SDS011;13016;52.162;21.034;2023-03-01T00:48:36;68.50;;;37.80;;
24995;SDS011;13016;52.162;21.034;2023-03-01T00:52:19;66.70;;;36.60;;
24995;SDS011;13016;52.162;21.034;2023-03-01T00:54:52;66.90;;;36.50;;
24995;SDS011;13016;52.162;21.034;2023-03-01T00:57:27;70.20;;;35.00;;
24995;SDS011;13016;52.162;21.034;2023-03-01T01:00:08;74.20;;;36.70;;
24995;SDS011;13016;52.162;21.034;2023-03-01T01:02:47;75.00;;;36.30;;
24995;SDS011;13016;52.162;21.034;2023-03-01T01:06:12;69.00;;;35.60;;
24995;SDS011;13016;52.162;21.034;2023-03-01T01:08:44;64.80;;;33.50;;
24995;SDS011;13016;52.162;21.034;2023-03-01T01:11:22;73.20;;;34.70;;
24995;SDS011;13016;52.162;21.034;2023-03-01T01:13:57;67.20;;;35.20;;
24995;SDS011;13016;52.162;21.034;2023-03-01T01:16:34;65.80;;;33.70;;
24995;SDS011;13016;52.162;21.034;2023-03-01T01:21:24;68.00;;;34.20;;
24995;SDS011;13016;52.162;21.034;2023-03-01T01:24:54;65.90;;;34.50;;
24995;SDS011;13016;52.162;21.034;2023-03-01T01:28:29;63.70;;;34.00;;
24995;SDS011;13016;52.162;21.034;2023-03-01T01:32:17;65.30;;;33.50;;
24995;SDS011;13016;52.162;21.034;2023-03-01T01:35:44;62.90;;;33.40;;
24995;SDS011;13016;52.162;21.034;2023-03-01T01:39:28;57.50;;;31.90;;
24995;SDS011;13016;52.162;21.034;2023-03-01T01:42:28;63.80;;;32.10;;
24995;SDS011;13016;52.162;21.034;2023-03-01T01:45:38;59.00;;;32.20;;
24995;SDS011;13016;52.162;21.034;2023-03-01T01:48:16;65.50;;;32.30;;
24995;SDS011;13016;52.162;21.034;2023-03-01T01:50:59;66.00;;;32.10;;
24995;SDS011;13016;52.162;21.034;2023-03-01T01:54:50;64.50;;;31.80;;
24995;SDS011;13016;52.162;21.034;2023-03-01T01:58:19;61.80;;;32.30;;
24995;SDS011;13016;52.162;21.034;2023-03-01T02:02:11;58.50;;;32.30;;
24995;SDS011;13016;52.162;21.034;2023-03-01T02:09:23;60.70;;;32.10;;
24995;SDS011;13016;52.162;21.034;2023-03-01T02:11:59;59.10;;;32.10;;
24995;SDS011;13016;52.162;21.034;2023-03-01T02:15:01;57.10;;;30.10;;
24995;SDS011;13016;52.162;21.034;2023-03-01T02:18:00;63.50;;;32.10;;
24995;SDS011;13016;52.162;21.034;2023-03-01T02:21:01;60.70;;;29.60;;
24995;SDS011;13016;52.162;21.034;2023-03-01T02:23:38;57.70;;;30.20;;
24995;SDS011;13016;52.162;21.034;2023-03-01T02:26:26;58.80;;;30.50;;
24995;SDS011;13016;52.162;21.034;2023-03-01T02:29:07;57.30;;;29.60;;
24995;SDS011;13016;52.162;21.034;2023-03-01T02:34:32;55.20;;;29.80;;
24995;SDS011;13016;52.162;21.034;2023-03-01T02:37:13;57.90;;;29.80;;
24995;SDS011;13016;52.162;21.034;2023-03-01T02:39:48;58.50;;;29.80;;
24995;SDS011;13016;52.162;21.034;2023-03-01T02:42:40;60.60;;;30.70;;
24995;SDS011;13016;52.162;21.034;2023-03-01T02:45:11;57.00;;;29.70;;
24995;SDS011;13016;52.162;21.034;2023-03-01T02:47:47;57.20;;;29.50;;
24995;SDS011;13016;52.162;21.034;2023-03-01T02:50:39;57.30;;;29.70;;
24995;SDS011;13016;52.162;21.034;2023-03-01T02:56:05;53.70;;;29.20;;
24995;SDS011;13016;52.162;21.034;2023-03-01T03:01:14;56.90;;;29.10;;
24995;SDS011;13016;52.162;21.034;2023-03-01T03:06:28;65.50;;;31.40;;
24995;SDS011;13016;52.162;21.034;2023-03-01T03:09:36;62.70;;;30.90;;
24995;SDS011;13016;52.162;21.034;2023-03-01T03:12:04;62.70;;;30.40;;
24995;SDS011;13016;52.162;21.034;2023-03-01T03:14:39;55.70;;;28.20;;
24995;SDS011;13016;52.162;21.034;2023-03-01T03:17:20;60.40;;;30.40;;
24995;SDS011;13016;52.162;21.034;2023-03-01T03:20:12;60.70;;;30.30;;
24995;SDS011;13016;52.162;21.034;2023-03-01T03:23:14;65.60;;;31.20;;
24995;SDS011;13016;52.162;21.034;2023-03-01T03:25:49;57.00;;;29.90;;
24995;SDS011;13016;52.162;21.034;2023-03-01T03:28:41;66.90;;;30.30;;
24995;SDS011;13016;52.162;21.034;2023-03-01T03:31:17;63.10;;;31.00;;
24995;SDS011;13016;52.162;21.034;2023-03-01T03:34:14;58.00;;;30.40;;
24995;SDS011;13016;52.162;21.034;2023-03-01T03:36:47;61.30;;;31.50;;
24995;SDS011;13016;52.162;21.034;2023-03-01T03:39:52;61.30;;;30.10;;
24995;SDS011;13016;52.162;21.034;2023-03-01T03:42:29;60.10;;;29.20;;
24995;SDS011;13016;52.162;21.034;2023-03-01T03:45:07;56.70;;;29.80;;
24995;SDS011;13016;52.162;21.034;2023-03-01T03:47:41;60.30;;;30.40;;
24995;SDS011;13016;52.162;21.034;2023-03-01T03:50:14;58.50;;;30.50;;
24995;SDS011;13016;52.162;21.034;2023-03-01T03:53:19;58.40;;;29.70;;
24995;SDS011;13016;52.162;21.034;2023-03-01T03:56:21;61.60;;;29.70;;
24995;SDS011;13016;52.162;21.034;2023-03-01T03:59:18;57.80;;;29.10;;
24995;SDS011;13016;52.162;21.034;2023-03-01T04:02:32;62.30;;;30.40;;
24995;SDS011;13016;52.162;21.034;2023-03-01T04:05:30;61.50;;;29.20;;
24995;SDS011;13016;52.162;21.034;2023-03-01T04:08:03;58.10;;;29.00;;
24995;SDS011;13016;52.162;21.034;2023-03-01T04:10:36;54.00;;;29.20;;
24995;SDS011;13016;52.162;21.034;2023-03-01T04:13:40;62.30;;;29.70;;
24995;SDS011;13016;52.162;21.034;2023-03-01T04:16:41;57.40;;;29.20;;
24995;SDS011;13016;52.162;21.034;2023-03-01T04:19:47;59.40;;;30.00;;
24995;SDS011;13016;52.162;21.034;2023-03-01T04:22:19;61.50;;;30.40;;
24995;SDS011;13016;52.162;21.034;2023-03-01T04:24:53;54.50;;;27.00;;
24995;SDS011;13016;52.162;21.034;2023-03-01T04:27:49;65.00;;;29.50;;
24995;SDS011;13016;52.162;21.034;2023-03-01T04:30:46;53.00;;;26.90;;
24995;SDS011;13016;52.162;21.034;2023-03-01T04:33:19;57.80;;;29.10;;
24995;SDS011;13016;52.162;21.034;2023-03-01T04:35:58;56.40;;;28.90;;
24995;SDS011;13016;52.162;21.034;2023-03-01T04:38:39;60.00;;;29.10;;
24995;SDS011;13016;52.162;21.034;2023-03-01T04:46:54;60.40;;;29.00;;
24995;SDS011;13016;52.162;21.034;2023-03-01T04:49:50;55.00;;;28.60;;
24995;SDS011;13016;52.162;21.034;2023-03-01T04:52:16;63.30;;;30.70;;
24995;SDS011;13016;52.162;21.034;2023-03-01T04:55:06;55.40;;;29.50;;
24995;SDS011;13016;52.162;21.034;2023-03-01T04:57:50;56.70;;;29.70;;
24995;SDS011;13016;52.162;21.034;2023-03-01T05:00:39;59.70;;;29.70;;
24995;SDS011;13016;52.162;21.034;2023-03-01T05:03:12;57.90;;;30.20;;
24995;SDS011;13016;52.162;21.034;2023-03-01T05:05:52;58.80;;;28.70;;
24995;SDS011;13016;52.162;21.034;2023-03-01T05:08:23;53.70;;;28.90;;
24995;SDS011;13016;52.162;21.034;2023-03-01T05:10:56;53.50;;;28.20;;
24995;SDS011;13016;52.162;21.034;2023-03-01T05:13:28;55.70;;;28.20;;
24995;SDS011;13016;52.162;21.034;2023-03-01T05:16:02;51.70;;;26.90;;
24995;SDS011;13016;52.162;21.034;2023-03-01T05:18:35;50.70;;;26.20;;
24995;SDS011;13016;52.162;21.034;2023-03-01T05:21:18;56.30;;;28.50;;
24995;SDS011;13016;52.162;21.034;2023-03-01T05:24:17;55.80;;;27.00;;
24995;SDS011;13016;52.162;21.034;2023-03-01T05:26:52;52.80;;;26.60;;
24995;SDS011;13016;52.162;21.034;2023-03-01T05:29:26;56.60;;;28.00;;
24995;SDS011;13016;52.162;21.034;2023-03-01T05:31:59;49.80;;;26.40;;
24995;SDS011;13016;52.162;21.034;2023-03-01T05:34:34;51.10;;;26.30;;
24995;SDS011;13016;52.162;21.034;2023-03-01T05:37:28;51.90;;;26.60;;
24995;SDS011;13016;52.162;21.034;2023-03-01T05:40:10;52.20;;;26.30;;
24995;SDS011;13016;52.162;21.034;2023-03-01T05:42:46;53.10;;;25.90;;
24995;SDS011;13016;52.162;21.034;2023-03-01T05:45:20;52.50;;;26.70;;
24995;SDS011;13016;52.162;21.034;2023-03-01T05:48:01;51.90;;;26.60;;
24995;SDS011;13016;52.162;21.034;2023-03-01T05:51:05;49.00;;;25.20;;
24995;SDS011;13016;52.162;21.034;2023-03-01T05:53:31;52.20;;;26.20;;
24995;SDS011;13016;52.162;21.034;2023-03-01T05:55:56;51.60;;;26.60;;
24995;SDS011;13016;52.162;21.034;2023-03-01T05:58:21;51.00;;;25.60;;
24995;SDS011;13016;52.162;21.034;2023-03-01T06:00:57;49.60;;;25.80;;
24995;SDS011;13016;52.162;21.034;2023-03-01T06:03:22;52.80;;;27.10;;
24995;SDS011;13016;52.162;21.034;2023-03-01T06:05:47;56.40;;;27.30;;
24995;SDS011;13016;52.162;21.034;2023-03-01T06:08:40;50.90;;;26.10;;
24995;SDS011;13016;52.162;21.034;2023-03-01T06:11:10;47.80;;;26.20;;
24995;SDS011;13016;52.162;21.034;2023-03-01T06:13:35;50.60;;;26.60;;
24995;SDS011;13016;52.162;21.034;2023-03-01T06:19:13;54.40;;;26.70;;
24995;SDS011;13016;52.162;21.034;2023-03-01T06:24:07;54.10;;;27.50;;
24995;SDS011;13016;52.162;21.034;2023-03-01T06:27:13;52.50;;;26.60;;
24995;SDS011;13016;52.162;21.034;2023-03-01T06:29:43;48.60;;;25.00;;
24995;SDS011;13016;52.162;21.034;2023-03-01T06:32:21;50.00;;;25.90;;
24995;SDS011;13016;52.162;21.034;2023-03-01T06:35:25;50.20;;;26.90;;
24995;SDS011;13016;52.162;21.034;2023-03-01T06:38:06;53.70;;;27.30;;
24995;SDS011;13016;52.162;21.034;2023-03-01T06:41:43;50.70;;;25.60;;
24995;SDS011;13016;52.162;21.034;2023-03-01T06:45:10;44.00;;;25.60;;
24995;SDS011;13016;52.162;21.034;2023-03-01T06:48:14;51.50;;;26.80;;
24995;SDS011;13016;52.162;21.034;2023-03-01T06:50:50;49.80;;;27.10;;
24995;SDS011;13016;52.162;21.034;2023-03-01T07:02:18;49.70;;;27.40;;
24995;SDS011;13016;52.162;21.034;2023-03-01T07:04:56;53.70;;;27.30;;
24995;SDS011;13016;52.162;21.034;2023-03-01T07:07:37;47.20;;;26.00;;
24995;SDS011;13016;52.162;21.034;2023-03-01T07:21:38;47.80;;;27.10;;
24995;SDS011;13016;52.162;21.034;2023-03-01T07:24:05;44.80;;;26.40;;
24995;SDS011;13016;52.162;21.034;2023-03-01T07:27:33;44.20;;;26.60;;
24995;SDS011;13016;52.162;21.034;2023-03-01T07:42:29;46.50;;;27.60;;
24995;SDS011;13016;52.162;21.034;2023-03-01T07:45:02;45.70;;;27.40;;
24995;SDS011;13016;52.162;21.034;2023-03-01T07:47:51;45.70;;;26.90;;
24995;SDS011;13016;52.162;21.034;2023-03-01T07:50:38;48.00;;;25.20;;
24995;SDS011;13016;52.162;21.034;2023-03-01T07:53:25;44.90;;;25.80;;
24995;SDS011;13016;52.162;21.034;2023-03-01T07:56:20;42.40;;;25.20;;
24995;SDS011;13016;52.162;21.034;2023-03-01T07:59:05;45.10;;;24.90;;
24995;SDS011;13016;52.162;21.034;2023-03-01T08:01:48;43.80;;;25.40;;
24995;SDS011;13016;52.162;21.034;2023-03-01T08:04:57;49.20;;;24.80;;
24995;SDS011;13016;52.162;21.034;2023-03-01T08:07:41;43.00;;;24.10;;
24995;SDS011;13016;52.162;21.034;2023-03-01T08:10:16;42.80;;;23.10;;
24995;SDS011;13016;52.162;21.034;2023-03-01T08:13:11;42.80;;;24.50;;
24995;SDS011;13016;52.162;21.034;2023-03-01T08:15:44;42.10;;;24.00;;
24995;SDS011;13016;52.162;21.034;2023-03-01T08:22:06;43.80;;;22.30;;
24995;SDS011;13016;52.162;21.034;2023-03-01T08:25:07;37.40;;;20.80;;
24995;SDS011;13016;52.162;21.034;2023-03-01T08:34:02;34.40;;;20.30;;
24995;SDS011;13016;52.162;21.034;2023-03-01T08:37:04;33.40;;;19.60;;
24995;SDS011;13016;52.162;21.034;2023-03-01T08:39:49;31.50;;;18.80;;
24995;SDS011;13016;52.162;21.034;2023-03-01T08:42:56;31.80;;;19.50;;
24995;SDS011;13016;52.162;21.034;2023-03-01T08:45:59;33.60;;;19.50;;
24995;SDS011;13016;52.162;21.034;2023-03-01T08:48:35;32.60;;;19.10;;
24995;SDS011;13016;52.162;21.034;2023-03-01T08:51:12;31.80;;;18.40;;
24995;SDS011;13016;52.162;21.034;2023-03-01T08:57:02;36.50;;;18.10;;
24995;SDS011;13016;52.162;21.034;2023-03-01T08:59:51;29.80;;;18.10;;
24995;SDS011;13016;52.162;21.034;2023-03-01T09:02:50;31.80;;;18.10;;
24995;SDS011;13016;52.162;21.034;2023-03-01T09:05:36;28.70;;;17.60;;
24995;SDS011;13016;52.162;21.034;2023-03-01T09:08:21;31.20;;;17.80;;
24995;SDS011;13016;52.162;21.034;2023-03-01T09:11:06;28.50;;;17.20;;
24995;SDS011;13016;52.162;21.034;2023-03-01T09:13:52;30.00;;;17.50;;
24995;SDS011;13016;52.162;21.034;2023-03-01T09:16:50;30.10;;;17.60;;
24995;SDS011;13016;52.162;21.034;2023-03-01T09:19:24;30.40;;;17.30;;
24995;SDS011;13016;52.162;21.034;2023-03-01T09:21:59;29.10;;;15.00;;
24995;SDS011;13016;52.162;21.034;2023-03-01T09:39:04;29.20;;;18.50;;
24995;SDS011;13016;52.162;21.034;2023-03-01T09:59:01;26.40;;;17.30;;
24995;SDS011;13016;52.162;21.034;2023-03-01T10:08:19;25.90;;;16.60;;
24995;SDS011;13016;52.162;21.034;2023-03-01T10:11:31;29.40;;;15.70;;
24995;SDS011;13016;52.162;21.034;2023-03-01T10:14:36;25.10;;;14.60;;
24995;SDS011;13016;52.162;21.034;2023-03-01T10:23:31;26.80;;;14.70;;
24995;SDS011;13016;52.162;21.034;2023-03-01T10:45:55;22.10;;;12.30;;
24995;SDS011;13016;52.162;21.034;2023-03-01T10:48:31;23.90;;;14.40;;
24995;SDS011;13016;52.162;21.034;2023-03-01T10:56:05;25.30;;;14.70;;
24995;SDS011;13016;52.162;21.034;2023-03-01T11:04:11;25.10;;;13.40;;
24995;SDS011;13016;52.162;21.034;2023-03-01T11:07:14;21.10;;;12.90;;
24995;SDS011;13016;52.162;21.034;2023-03-01T11:13:16;25.10;;;12.90;;
24995;SDS011;13016;52.162;21.034;2023-03-01T11:16:02;24.40;;;12.20;;
24995;SDS011;13016;52.162;21.034;2023-03-01T11:18:39;22.50;;;12.50;;
24995;SDS011;13016;52.162;21.034;2023-03-01T11:21:16;21.20;;;12.40;;
24995;SDS011;13016;52.162;21.034;2023-03-01T11:24:25;15.30;;;10.30;;
24995;SDS011;13016;52.162;21.034;2023-03-01T11:27:35;16.20;;;10.20;;
24995;SDS011;13016;52.162;21.034;2023-03-01T11:30:43;19.80;;;10.80;;
24995;SDS011;13016;52.162;21.034;2023-03-01T11:39:58;19.80;;;11.20;;
24995;SDS011;13016;52.162;21.034;2023-03-01T11:43:09;17.60;;;10.00;;
24995;SDS011;13016;52.162;21.034;2023-03-01T11:52:16;18.10;;;10.70;;
24995;SDS011;13016;52.162;21.034;2023-03-01T11:58:23;19.70;;;10.50;;
24995;SDS011;13016;52.162;21.034;2023-03-01T12:01:40;16.70;;;10.30;;
24995;SDS011;13016;52.162;21.034;2023-03-01T12:07:04;18.50;;;9.90;;
24995;SDS011;13016;52.162;21.034;2023-03-01T12:13:16;16.90;;;9.10;;
24995;SDS011;13016;52.162;21.034;2023-03-01T12:28:55;16.20;;;9.20;;
24995;SDS011;13016;52.162;21.034;2023-03-01T12:32:20;16.10;;;10.00;;
24995;SDS011;13016;52.162;21.034;2023-03-01T12:41:21;14.00;;;8.90;;
24995;SDS011;13016;52.162;21.034;2023-03-01T12:47:34;14.00;;;8.90;;
24995;SDS011;13016;52.162;21.034;2023-03-01T12:52:48;13.10;;;8.70;;
24995;SDS011;13016;52.162;21.034;2023-03-01T12:55:39;16.50;;;10.50;;
24995;SDS011;13016;52.162;21.034;2023-03-01T12:58:31;17.10;;;9.00;;
24995;SDS011;13016;52.162;21.034;2023-03-01T13:05:24;17.90;;;9.40;;
24995;SDS011;13016;52.162;21.034;2023-03-01T13:11:00;14.00;;;8.80;;
24995;SDS011;13016;52.162;21.034;2023-03-01T13:15:35;16.80;;;9.50;;
24995;SDS011;13016;52.162;21.034;2023-03-01T13:29:53;16.10;;;10.00;;
24995;SDS011;13016;52.162;21.034;2023-03-01T13:32:35;16.70;;;10.20;;
24995;SDS011;13016;52.162;21.034;2023-03-01T13:41:01;17.20;;;10.10;;
24995;SDS011;13016;52.162;21.034;2023-03-01T13:46:28;16.10;;;9.70;;
24995;SDS011;13016;52.162;21.034;2023-03-01T13:49:11;15.30;;;9.60;;
24995;SDS011;13016;52.162;21.034;2023-03-01T13:51:53;14.20;;;9.60;;
24995;SDS011;13016;52.162;21.034;2023-03-01T13:59:26;17.70;;;10.60;;
24995;SDS011;13016;52.162;21.034;2023-03-01T14:02:10;18.00;;;11.00;;
24995;SDS011;13016;52.162;21.034;2023-03-01T14:10:25;17.00;;;10.80;;
24995;SDS011;13016;52.162;21.034;2023-03-01T14:21:21;17.90;;;11.60;;
24995;SDS011;13016;52.162;21.034;2023-03-01T14:23:58;17.10;;;10.90;;
24995;SDS011;13016;52.162;21.034;2023-03-01T14:26:25;19.40;;;11.00;;
24995;SDS011;13016;52.162;21.034;2023-03-01T14:28:50;18.10;;;10.80;;
24995;SDS011;13016;52.162;21.034;2023-03-01T14:31:35;17.60;;;10.70;;
24995;SDS011;13016;52.162;21.034;2023-03-01T14:34:05;19.80;;;10.80;;
24995;SDS011;13016;52.162;21.034;2023-03-01T14:36:32;19.40;;;10.40;;
24995;SDS011;13016;52.162;21.034;2023-03-01T14:39:01;16.10;;;10.50;;
24995;SDS011;13016;52.162;21.034;2023-03-01T14:41:43;19.20;;;10.90;;
24995;SDS011;13016;52.162;21.034;2023-03-01T14:44:12;17.50;;;10.70;;
24995;SDS011;13016;52.162;21.034;2023-03-01T14:46:43;22.60;;;11.60;;
24995;SDS011;13016;52.162;21.034;2023-03-01T14:51:40;18.90;;;11.30;;
24995;SDS011;13016;52.162;21.034;2023-03-01T14:54:39;21.40;;;11.60;;
24995;SDS011;13016;52.162;21.034;2023-03-01T14:57:26;18.40;;;10.70;;
24995;SDS011;13016;52.162;21.034;2023-03-01T14:59:52;18.20;;;10.70;;
24995;SDS011;13016;52.162;21.034;2023-03-01T15:02:27;21.00;;;11.40;;
24995;SDS011;13016;52.162;21.034;2023-03-01T15:04:55;18.30;;;11.30;;
24995;SDS011;13016;52.162;21.034;2023-03-01T15:07:23;22.90;;;12.50;;
24995;SDS011;13016;52.162;21.034;2023-03-01T15:09:59;21.00;;;12.20;;
24995;SDS011;13016;52.162;21.034;2023-03-01T15:14:56;21.50;;;12.30;;
24995;SDS011;13016;52.162;21.034;2023-03-01T15:17:32;23.00;;;12.80;;
24995;SDS011;13016;52.162;21.034;2023-03-01T15:20:07;23.50;;;13.40;;
24995;SDS011;13016;52.162;21.034;2023-03-01T15:22:45;21.00;;;13.20;;
24995;SDS011;13016;52.162;21.034;2023-03-01T15:25:18;22.10;;;13.80;;
24995;SDS011;13016;52.162;21.034;2023-03-01T15:27:55;21.40;;;13.20;;
24995;SDS011;13016;52.162;21.034;2023-03-01T15:30:29;20.50;;;12.50;;
24995;SDS011;13016;52.162;21.034;2023-03-01T15:33:18;21.60;;;13.20;;
24995;SDS011;13016;52.162;21.034;2023-03-01T15:39:05;24.60;;;12.90;;
24995;SDS011;13016;52.162;21.034;2023-03-01T15:41:48;22.90;;;13.20;;
24995;SDS011;13016;52.162;21.034;2023-03-01T15:44:28;21.10;;;12.50;;
24995;SDS011;13016;52.162;21.034;2023-03-01T15:47:00;23.40;;;12.10;;
24995;SDS011;13016;52.162;21.034;2023-03-01T15:52:21;24.20;;;12.90;;
24995;SDS011;13016;52.162;21.034;2023-03-01T15:54:46;22.90;;;13.50;;
24995;SDS011;13016;52.162;21.034;2023-03-01T15:57:19;23.40;;;12.90;;
24995;SDS011;13016;52.162;21.034;2023-03-01T15:59:45;23.20;;;13.20;;
24995;SDS011;13016;52.162;21.034;2023-03-01T16:02:11;22.20;;;13.10;;
24995;SDS011;13016;52.162;21.034;2023-03-01T16:04:37;22.40;;;13.00;;
24995;SDS011;13016;52.162;21.034;2023-03-01T16:07:02;24.20;;;13.30;;
24995;SDS011;13016;52.162;21.034;2023-03-01T16:09:28;21.80;;;12.80;;
24995;SDS011;13016;52.162;21.034;2023-03-01T16:12:14;25.10;;;13.90;;
24995;SDS011;13016;52.162;21.034;2023-03-01T16:14:44;25.90;;;13.70;;
24995;SDS011;13016;52.162;21.034;2023-03-01T16:17:20;25.60;;;13.20;;
24995;SDS011;13016;52.162;21.034;2023-03-01T16:19:48;22.90;;;13.30;;
24995;SDS011;13016;52.162;21.034;2023-03-01T16:22:14;22.90;;;13.20;;
24995;SDS011;13016;52.162;21.034;2023-03-01T16:24:40;25.60;;;13.90;;
24995;SDS011;13016;52.162;21.034;2023-03-01T16:27:09;24.30;;;14.00;;
24995;SDS011;13016;52.162;21.034;2023-03-01T16:29:34;22.10;;;13.20;;
24995;SDS011;13016;52.162;21.034;2023-03-01T16:32:00;28.90;;;14.00;;
24995;SDS011;13016;52.162;21.034;2023-03-01T16:34:31;23.30;;;14.20;;
24995;SDS011;13016;52.162;21.034;2023-03-01T16:37:08;23.90;;;13.90;;
24995;SDS011;13016;52.162;21.034;2023-03-01T16:39:38;22.80;;;13.90;;
24995;SDS011;13016;52.162;21.034;2023-03-01T16:42:11;25.40;;;14.00;;
24995;SDS011;13016;52.162;21.034;2023-03-01T16:44:47;29.50;;;14.40;;
24995;SDS011;13016;52.162;21.034;2023-03-01T16:47:15;31.30;;;15.90;;
24995;SDS011;13016;52.162;21.034;2023-03-01T16:49:51;28.10;;;15.30;;
24995;SDS011;13016;52.162;21.034;2023-03-01T16:52:20;30.00;;;16.40;;
24995;SDS011;13016;52.162;21.034;2023-03-01T16:57:59;30.80;;;15.90;;
24995;SDS011;13016;52.162;21.034;2023-03-01T17:00:38;32.40;;;16.70;;
24995;SDS011;13016;52.162;21.034;2023-03-01T17:03:03;30.20;;;16.50;;
24995;SDS011;13016;52.162;21.034;2023-03-01T17:05:29;29.80;;;15.90;;
24995;SDS011;13016;52.162;21.034;2023-03-01T17:07:54;29.00;;;15.70;;
24995;SDS011;13016;52.162;21.034;2023-03-01T17:10:19;29.20;;;16.30;;
24995;SDS011;13016;52.162;21.034;2023-03-01T17:12:47;33.20;;;16.70;;
24995;SDS011;13016;52.162;21.034;2023-03-01T17:15:13;27.80;;;16.50;;
24995;SDS011;13016;52.162;21.034;2023-03-01T17:17:41;30.50;;;17.30;;
24995;SDS011;13016;52.162;21.034;2023-03-01T17:22:46;37.30;;;19.50;;
24995;SDS011;13016;52.162;21.034;2023-03-01T17:25:30;34.10;;;18.90;;
24995;SDS011;13016;52.162;21.034;2023-03-01T17:27:55;35.10;;;18.90;;
24995;SDS011;13016;52.162;21.034;2023-03-01T17:30:43;37.70;;;18.40;;
24995;SDS011;13016;52.162;21.034;2023-03-01T17:33:16;38.70;;;19.00;;
24995;SDS011;13016;52.162;21.034;2023-03-01T17:35:49;32.40;;;17.20;;
24995;SDS011;13016;52.162;21.034;2023-03-01T17:38:19;32.10;;;17.70;;
24995;SDS011;13016;52.162;21.034;2023-03-01T17:41:05;30.50;;;17.00;;
24995;SDS011;13016;52.162;21.034;2023-03-01T17:43:31;28.00;;;16.50;;
24995;SDS011;13016;52.162;21.034;2023-03-01T17:46:07;27.40;;;15.50;;
24995;SDS011;13016;52.162;21.034;2023-03-01T17:57:10;29.70;;;15.90;;
24995;SDS011;13016;52.162;21.034;2023-03-01T18:00:30;29.60;;;16.30;;
24995;SDS011;13016;52.162;21.034;2023-03-01T18:19:51;32.90;;;17.50;;
24995;SDS011;13016;52.162;21.034;2023-03-01T18:22:23;33.10;;;18.40;;
24995;SDS011;13016;52.162;21.034;2023-03-01T18:37:54;36.10;;;19.30;;
24995;SDS011;13016;52.162;21.034;2023-03-01T18:40:28;36.30;;;18.90;;
24995;SDS011;13016;52.162;21.034;2023-03-01T18:43:02;42.90;;;20.20;;
24995;SDS011;13016;52.162;21.034;2023-03-01T18:45:37;36.10;;;19.30;;
24995;SDS011;13016;52.162;21.034;2023-03-01T18:48:19;39.70;;;19.70;;
24995;SDS011;13016;52.162;21.034;2023-03-01T18:50:55;35.20;;;19.30;;
24995;SDS011;13016;52.162;21.034;2023-03-01T18:53:33;35.50;;;18.80;;
24995;SDS011;13016;52.162;21.034;2023-03-01T18:56:28;40.30;;;20.40;;
24995;SDS011;13016;52.162;21.034;2023-03-01T19:22:43;38.20;;;22.20;;
24995;SDS011;13016;52.162;21.034;2023-03-01T19:25:14;32.10;;;20.70;;
24995;SDS011;13016;52.162;21.034;2023-03-01T19:27:58;37.70;;;21.40;;
24995;SDS011;13016;52.162;21.034;2023-03-01T19:30:40;38.00;;;21.70;;
24995;SDS011;13016;52.162;21.034;2023-03-01T19:35:53;41.90;;;22.90;;
24995;SDS011;13016;52.162;21.034;2023-03-01T19:38:34;165.40;;;79.90;;
24995;SDS011;13016;52.162;21.034;2023-03-01T19:41:07;41.60;;;24.60;;
24995;SDS011;13016;52.162;21.034;2023-03-01T19:43:40;40.50;;;23.40;;
24995;SDS011;13016;52.162;21.034;2023-03-01T19:46:25;44.40;;;23.50;;
24995;SDS011;13016;52.162;21.034;2023-03-01T19:48:51;47.60;;;24.70;;
24995;SDS011;13016;52.162;21.034;2023-03-01T19:51:18;47.70;;;26.60;;
24995;SDS011;13016;52.162;21.034;2023-03-01T19:54:07;49.80;;;25.70;;
24995;SDS011;13016;52.162;21.034;2023-03-01T19:59:10;45.80;;;26.60;;
24995;SDS011;13016;52.162;21.034;2023-03-01T20:01:42;52.00;;;26.90;;
24995;SDS011;13016;52.162;21.034;2023-03-01T20:04:14;47.00;;;27.00;;
24995;SDS011;13016;52.162;21.034;2023-03-01T20:06:51;48.60;;;27.50;;
24995;SDS011;13016;52.162;21.034;2023-03-01T20:09:48;50.20;;;28.10;;
24995;SDS011;13016;52.162;21.034;2023-03-01T20:12:13;53.40;;;28.10;;
24995;SDS011;13016;52.162;21.034;2023-03-01T20:14:43;51.40;;;28.50;;
24995;SDS011;13016;52.162;21.034;2023-03-01T20:17:12;51.40;;;28.40;;
24995;SDS011;13016;52.162;21.034;2023-03-01T20:19:38;49.70;;;27.60;;
24995;SDS011;13016;52.162;21.034;2023-03-01T20:22:04;226.20;;;105.60;;
24995;SDS011;13016;52.162;21.034;2023-03-01T20:24:29;70.40;;;37.70;;
24995;SDS011;13016;52.162;21.034;2023-03-01T20:27:02;59.90;;;30.50;;
24995;SDS011;13016;52.162;21.034;2023-03-01T20:29:27;56.70;;;31.40;;
24995;SDS011;13016;52.162;21.034;2023-03-01T20:31:53;51.80;;;28.40;;
24995;SDS011;13016;52.162;21.034;2023-03-01T20:34:58;55.10;;;29.30;;
24995;SDS011;13016;52.162;21.034;2023-03-01T20:37:24;54.50;;;30.30;;
24995;SDS011;13016;52.162;21.034;2023-03-01T20:39:49;59.40;;;29.60;;
24995;SDS011;13016;52.162;21.034;2023-03-01T20:42:18;50.50;;;29.30;;
24995;SDS011;13016;52.162;21.034;2023-03-01T20:44:46;54.60;;;30.40;;
24995;SDS011;13016;52.162;21.034;2023-03-01T20:47:17;56.40;;;29.20;;
24995;SDS011;13016;52.162;21.034;2023-03-01T20:49:51;54.30;;;29.70;;
24995;SDS011;13016;52.162;21.034;2023-03-01T20:52:23;56.50;;;29.20;;
24995;SDS011;13016;52.162;21.034;2023-03-01T20:54:50;56.10;;;29.60;;
24995;SDS011;13016;52.162;21.034;2023-03-01T20:57:16;57.60;;;28.60;;
24995;SDS011;13016;52.162;21.034;2023-03-01T20:59:42;52.70;;;29.40;;
24995;SDS011;13016;52.162;21.034;2023-03-01T21:02:09;53.80;;;30.40;;
24995;SDS011;13016;52.162;21.034;2023-03-01T21:04:35;56.90;;;29.50;;
24995;SDS011;13016;52.162;21.034;2023-03-01T21:07:01;60.00;;;32.00;;
24995;SDS011;13016;52.162;21.034;2023-03-01T21:09:26;55.60;;;29.60;;
24995;SDS011;13016;52.162;21.034;2023-03-01T21:12:14;53.80;;;29.20;;
24995;SDS011;13016;52.162;21.034;2023-03-01T21:15:04;54.80;;;29.60;;
24995;SDS011;13016;52.162;21.034;2023-03-01T21:18:09;53.10;;;28.70;;
24995;SDS011;13016;52.162;21.034;2023-03-01T21:21:06;59.90;;;30.90;;